EST,Max TemperatureF,Mean TemperatureF,Min TemperatureF,Max Dew PointF,MeanDew PointF,Min DewpointF,Max Humidity, Mean Humidity, Min Humidity, Max Sea Level PressureIn, Mean Sea Level PressureIn, Min Sea Level PressureIn, Max VisibilityMiles, Mean VisibilityMiles, Min VisibilityMiles, Max Wind SpeedMPH, Mean Wind SpeedMPH, Max Gust SpeedMPH,PrecipitationIn, CloudCover, Events, WindDirDegrees
2012-11-1,28,26,24,27,26,25,100,100,93,,,,0,0,0,38,29,31,0.00,5,Fog-Snow,225
2012-11-2,28,24,21,27,23,21,100,98,93,,,,1,0,0,31,19,,0.03,6,Fog-Snow,266
2012-11-3,21,19,17,21,19,18,100,100,100,,,,0,0,0,46,34,46,0.09,,Fog-Snow,304
2012-11-4,21,16,12,21,13,-18,100,90,17,,,,0,0,0,50,37,53,0.00,5,Fog-Snow,308
2012-11-5,17,11,5,9,4,-15,100,88,23,,,,0,0,0,46,25,53,0.09,1,Fog-Snow,301
2012-11-6,23,11,1,5,-9,-33,100,53,7,,,,0,0,0,45,34,47,0.01,1,Fog-Snow,303
2012-11-7,23,18,12,-2,-15,-35,45,25,8,,,,15,15,15,53,25,58,0.00,6,Snow,71
2012-11-8,26,20,15,27,20,16,100,100,100,,,,0,0,0,60,47,44,0.07,,Fog-Snow,38
2012-11-9,23,18,14,23,16,7,100,94,54,,,,4,0,0,68,47,79,0.00,2,Fog,320
2012-11-10,26,19,12,16,-2,-31,100,55,8,,,,0,0,0,72,45,78,0.00,3,Fog-Snow,306
2012-11-11,46,34,23,37,27,3,100,73,40,,,,5,1,0,55,42,61,0.00,3,Fog,263
2012-11-12,44,40,35,39,26,10,100,60,25,,,,0,0,0,59,42,64,0.11,5,Fog-Rain,226
2012-11-13,41,26,12,41,21,-13,100,88,19,,,,0,0,0,56,37,84,0.20,2,Fog-Rain,272
2012-11-14,33,26,19,9,-10,-24,54,20,9,,,,,,,16,7,,0.00,0,,338
2012-11-15,39,36,32,7,-4,-18,32,20,11,,,,,,,14,3,,0.00,4,,279
2012-11-16,32,26,17,21,7,-15,100,51,14,,,,0,0,0,43,18,52,0.00,4,Fog,320
2012-11-17,26,20,14,16,-9,-35,100,29,6,,,,0,0,0,44,32,39,0.00,0,Fog,320
2012-11-18,30,27,24,16,-2,-24,55,30,9,,,,,,,22,11,,0.00,2,,282
2012-11-19,35,32,28,-4,-16,-27,21,13,7,,,,,,,23,17,,0.00,1,,275
2012-11-20,35,32,30,16,2,-8,55,29,18,,,,,,,18,12,,0.00,4,,19
2012-11-21,35,32,28,21,14,-2,69,49,27,,,,,,,14,7,,0.00,3,,16
2012-11-22,37,34,28,23,18,10,75,58,33,,,,,,,26,16,,0.00,1,,271
2012-11-23,39,34,26,28,18,7,100,56,30,,,,20,8,0,45,31,50,0.00,4,Fog-Snow,238
2012-11-24,26,14,3,27,14,3,100,100,100,,,,0,0,0,82,43,92,0.41,,Fog-Snow,281
2012-11-25,1,0,0,1,0,0,100,100,100,,,,0,0,0,90,81,98,0.05,,Fog-Snow,290
2012-11-26,10,5,0,10,4,-2,100,98,78,,,,0,0,0,66,57,75,0.20,4,Fog-Snow,290
2012-11-27,12,8,5,12,7,0,100,96,72,,,,1,0,0,44,31,48,0.03,3,Fog-Snow,286
2012-11-28,12,8,5,12,6,1,100,94,79,,,,20,3,0,50,14,54,0.01,7,Fog-Snow,244
2012-11-29,10,5,0,10,5,0,100,100,100,,,,0,0,0,69,60,79,0.66,,Fog-Snow,289
2012-11-30,8,-2,-9,-2,-32,-63,100,34,4,,,,0,0,0,63,46,70,0.03,5,Fog-Snow,312